createdAt,value
2019-03-12T00:01:57.514Z,100.00
2019-03-12T00:04:28.278Z,100.00
2019-03-12T00:06:59.040Z,100.00
2019-03-12T00:09:29.801Z,100.00
2019-03-12T00:12:00.558Z,100.00
2019-03-12T00:14:31.325Z,100.00
2019-03-12T00:17:02.085Z,100.00
2019-03-12T00:19:32.858Z,100.00
2019-03-12T00:22:03.614Z,100.00
2019-03-12T00:24:34.383Z,100.00
2019-03-12T00:27:05.141Z,100.00
2019-03-12T00:29:35.910Z,100.00
2019-03-12T00:32:06.667Z,100.00
2019-03-12T00:34:37.434Z,100.00
2019-03-12T00:37:08.192Z,100.00
2019-03-12T00:39:38.963Z,100.00
2019-03-12T00:42:09.723Z,100.00
2019-03-12T00:44:40.517Z,100.00
2019-03-12T00:47:11.295Z,100.00
2019-03-12T00:49:42.065Z,100.00
2019-03-12T00:52:12.822Z,100.00
2019-03-12T00:54:43.589Z,100.00
2019-03-12T00:57:14.347Z,100.00
2019-03-12T00:59:45.114Z,100.00
2019-03-12T01:02:15.886Z,100.00
2019-03-12T01:04:46.676Z,100.00
2019-03-12T01:07:17.433Z,100.00
2019-03-12T01:09:48.198Z,100.00
2019-03-12T01:12:18.964Z,100.00
2019-03-12T01:14:49.721Z,100.00
2019-03-12T01:17:20.482Z,100.00
2019-03-12T01:19:51.258Z,100.00
2019-03-12T01:22:22.015Z,100.00
2019-03-12T01:24:52.792Z,100.00
2019-03-12T01:27:23.560Z,100.00
2019-03-12T01:29:54.407Z,100.00
2019-03-12T01:32:25.160Z,100.00
2019-03-12T01:34:55.926Z,100.00
2019-03-12T01:37:26.681Z,100.00
2019-03-12T01:39:57.445Z,100.00
2019-03-12T01:42:28.205Z,100.00
2019-03-12T01:44:58.974Z,100.00
2019-03-12T01:47:29.729Z,100.00
2019-03-12T01:50:00.517Z,100.00
2019-03-12T01:52:31.304Z,100.00
2019-03-12T01:55:04.146Z,100.00
2019-03-12T01:57:34.911Z,100.00
2019-03-12T02:00:13.317Z,100.00
2019-03-12T02:02:44.081Z,100.00
2019-03-12T02:05:14.843Z,100.00
2019-03-12T02:07:45.600Z,100.00
2019-03-12T02:10:16.374Z,100.00
2019-03-12T02:12:47.137Z,100.00
2019-03-12T02:15:17.955Z,100.00
2019-03-12T02:17:48.709Z,100.00
2019-03-12T02:20:19.470Z,100.00
2019-03-12T02:22:50.226Z,100.00
2019-03-12T02:25:20.990Z,100.00
2019-03-12T02:27:51.749Z,100.00
2019-03-12T02:30:22.620Z,100.00
2019-03-12T02:32:53.667Z,100.00
2019-03-12T02:35:24.454Z,100.00
2019-03-12T02:37:55.206Z,100.00
2019-03-12T02:40:25.975Z,100.00
2019-03-12T02:42:56.731Z,100.00
2019-03-12T02:45:27.606Z,100.00
2019-03-12T02:47:58.367Z,100.00
2019-03-12T02:50:29.131Z,100.00
2019-03-12T02:52:59.898Z,100.00
2019-03-12T02:55:30.657Z,100.00
2019-03-12T02:58:01.451Z,100.00
2019-03-12T03:00:32.175Z,100.00
2019-03-12T03:03:02.930Z,100.00
2019-03-12T03:05:35.710Z,100.00
2019-03-12T03:08:08.379Z,100.00
2019-03-12T03:10:39.156Z,100.00
2019-03-12T03:13:09.915Z,100.00
2019-03-12T03:15:42.703Z,100.00
2019-03-12T03:18:13.490Z,100.00
2019-03-12T03:20:44.263Z,100.00
2019-03-12T03:23:15.013Z,100.00
2019-03-12T03:25:45.775Z,100.00
2019-03-12T03:28:16.537Z,100.00
2019-03-12T03:30:47.324Z,100.00
2019-03-12T03:33:18.066Z,100.00
2019-03-12T03:35:48.827Z,100.00
2019-03-12T03:38:19.588Z,100.00
2019-03-12T03:40:50.409Z,100.00
2019-03-12T03:43:21.165Z,100.00
2019-03-12T03:45:52.243Z,100.00
2019-03-12T03:48:23.020Z,100.00
2019-03-12T03:50:53.763Z,100.00
2019-03-12T03:53:24.539Z,100.00
2019-03-12T03:55:55.394Z,100.00
2019-03-12T03:58:26.155Z,100.00
2019-03-12T04:00:56.916Z,100.00
2019-03-12T04:03:27.693Z,100.00
2019-03-12T04:05:58.448Z,100.00
2019-03-12T04:08:29.210Z,100.00
2019-03-12T04:10:59.968Z,100.00
2019-03-12T04:13:30.776Z,100.00
2019-03-12T04:16:01.636Z,100.00
2019-03-12T04:18:32.470Z,100.00
2019-03-12T04:21:03.246Z,100.00
2019-03-12T04:23:33.986Z,100.00
2019-03-12T04:26:04.859Z,100.00
2019-03-12T04:28:35.649Z,100.00
2019-03-12T04:31:06.455Z,100.00
2019-03-12T04:33:53.399Z,100.00
2019-03-12T04:36:24.193Z,100.00
2019-03-12T04:38:54.959Z,100.00
2019-03-12T04:41:25.718Z,100.00
2019-03-12T04:43:56.481Z,100.00
2019-03-12T04:46:27.266Z,100.00
2019-03-12T04:48:58.034Z,100.00
2019-03-12T04:51:28.811Z,100.00
2019-03-12T04:53:59.579Z,100.00
2019-03-12T04:56:30.338Z,100.00
2019-03-12T04:59:01.113Z,100.00
2019-03-12T05:01:31.870Z,100.00
2019-03-12T05:04:02.639Z,100.00
2019-03-12T05:06:33.394Z,100.00
2019-03-12T05:09:04.862Z,100.00
2019-03-12T05:11:35.729Z,100.00
2019-03-12T05:14:18.401Z,100.00
2019-03-12T05:16:50.365Z,100.00
2019-03-12T05:19:22.542Z,100.00
2019-03-12T05:21:53.377Z,100.00
2019-03-12T05:24:24.090Z,100.00
2019-03-12T05:26:54.846Z,100.00
2019-03-12T05:29:25.618Z,100.00
2019-03-12T05:31:56.375Z,100.00
2019-03-12T05:34:27.192Z,100.00
2019-03-12T05:36:57.946Z,100.00
2019-03-12T05:39:28.709Z,100.00
2019-03-12T05:41:59.471Z,100.00
2019-03-12T05:44:30.234Z,100.00
2019-03-12T05:47:00.998Z,100.00
2019-03-12T05:49:31.765Z,100.00
2019-03-12T05:52:02.625Z,100.00
2019-03-12T05:54:33.393Z,100.00
2019-03-12T05:57:04.146Z,100.00
2019-03-12T05:59:34.916Z,100.00
2019-03-12T06:02:05.669Z,100.00
2019-03-12T06:04:36.446Z,100.00
2019-03-12T06:07:07.200Z,100.00
2019-03-12T06:09:37.998Z,100.00
2019-03-12T06:12:08.763Z,100.00
2019-03-12T06:14:39.531Z,100.00
2019-03-12T06:17:10.291Z,100.00
2019-03-12T06:19:41.092Z,100.00
2019-03-12T06:22:12.348Z,100.00
2019-03-12T06:24:43.122Z,100.00
2019-03-12T06:27:13.884Z,100.00
2019-03-12T06:29:44.650Z,100.00
2019-03-12T06:32:20.090Z,100.00
2019-03-12T06:34:52.469Z,100.00
2019-03-12T06:37:40.241Z,100.00
2019-03-12T06:40:16.122Z,100.00
2019-03-12T06:42:54.442Z,100.00
2019-03-12T06:45:33.007Z,100.00
2019-03-12T06:48:08.467Z,100.00
2019-03-12T06:50:41.147Z,100.00
2019-03-12T06:53:28.554Z,100.00
2019-03-12T06:56:18.166Z,100.00
2019-03-12T06:58:50.835Z,100.00
2019-03-12T07:01:26.051Z,100.00
2019-03-12T07:03:58.727Z,100.00
2019-03-12T07:06:33.958Z,100.00
2019-03-12T07:09:15.802Z,100.00
2019-03-12T07:11:51.239Z,100.00
2019-03-12T07:14:23.927Z,100.00
2019-03-12T07:16:56.591Z,100.00
2019-03-12T07:19:29.374Z,100.00
2019-03-12T07:22:17.357Z,100.00
2019-03-12T07:24:59.130Z,100.00
2019-03-12T07:27:34.309Z,100.00
2019-03-12T07:30:12.849Z,100.00
2019-03-12T07:32:47.955Z,100.00
2019-03-12T07:35:23.650Z,100.00
2019-03-12T07:38:13.206Z,100.00
2019-03-12T07:40:51.940Z,100.00
2019-03-12T07:43:30.340Z,100.00
2019-03-12T07:46:15.542Z,100.00
2019-03-12T07:48:53.748Z,100.00
2019-03-12T07:51:26.426Z,100.00
2019-03-12T07:54:11.182Z,100.00
2019-03-12T07:57:00.655Z,100.00
2019-03-12T07:59:36.088Z,100.00
2019-03-12T08:02:18.079Z,100.00
2019-03-12T08:04:53.347Z,100.00
2019-03-12T08:07:31.950Z,100.00
2019-03-12T08:10:10.913Z,100.00
2019-03-12T08:12:43.582Z,100.00
2019-03-12T08:15:28.203Z,100.00
2019-03-12T08:18:00.889Z,100.00
2019-03-12T08:20:45.729Z,100.00
2019-03-12T08:23:30.462Z,100.00
2019-03-12T08:26:03.142Z,100.00
2019-03-12T08:28:52.492Z,100.00
2019-03-12T08:31:27.791Z,100.00
2019-03-12T08:34:15.373Z,100.00
2019-03-12T08:36:54.014Z,100.00
2019-03-12T08:39:26.674Z,100.00
2019-03-12T08:41:59.360Z,100.00
2019-03-12T08:44:37.445Z,100.00
2019-03-12T08:47:27.518Z,100.00
2019-03-12T08:50:00.390Z,100.00
2019-03-12T08:52:38.909Z,100.00
2019-03-12T08:55:27.979Z,100.00
2019-03-12T08:58:00.661Z,100.00
2019-03-12T09:00:36.077Z,100.00
2019-03-12T09:03:25.618Z,100.00
2019-03-12T09:06:15.035Z,100.00
2019-03-12T09:09:04.299Z,100.00
2019-03-12T09:11:36.984Z,100.00
2019-03-12T09:14:21.311Z,100.00
2019-03-12T09:16:53.986Z,100.00
2019-03-12T09:19:26.649Z,100.00
2019-03-12T09:21:59.318Z,100.00
2019-03-12T09:24:31.978Z,100.00
2019-03-12T09:27:04.854Z,100.00
2019-03-12T09:29:37.518Z,100.00
2019-03-12T09:32:15.779Z,94.33
2019-03-12T09:35:05.210Z,92.79
2019-03-12T09:37:37.884Z,90.61
2019-03-12T09:40:11.950Z,91.69
2019-03-12T09:42:50.849Z,89.72
2019-03-12T09:45:26.585Z,88.29
2019-03-12T09:47:59.201Z,92.99
2019-03-12T09:50:37.645Z,98.16
2019-03-12T09:53:22.523Z,97.41
2019-03-12T09:56:00.998Z,94.99
2019-03-12T09:58:42.459Z,92.67
2019-03-12T10:01:15.121Z,92.95
2019-03-12T10:03:53.807Z,89.93
2019-03-12T10:06:35.689Z,87.58
2019-03-12T10:09:18.090Z,89.12
2019-03-12T10:11:59.523Z,91.23
2019-03-12T10:14:34.774Z,94.30
2019-03-12T10:17:10.362Z,97.75
2019-03-12T10:19:52.098Z,93.08
2019-03-12T10:22:42.874Z,92.90
2019-03-12T10:25:15.537Z,96.93
2019-03-12T10:27:57.110Z,98.86
2019-03-12T10:30:46.815Z,97.73
2019-03-12T10:33:22.015Z,96.42
2019-03-12T10:35:54.689Z,97.48
2019-03-12T10:39:20.676Z,95.56
2019-03-12T10:41:59.490Z,95.32
2019-03-12T10:44:37.710Z,95.33
2019-03-12T10:47:22.210Z,90.06
2019-03-12T10:49:52.973Z,92.14
2019-03-12T10:52:23.731Z,90.01
2019-03-12T10:54:54.499Z,90.13
2019-03-12T10:57:25.253Z,90.87
2019-03-12T10:59:56.020Z,89.04
2019-03-12T11:02:26.784Z,88.17
2019-03-12T11:04:57.553Z,88.03
2019-03-12T11:07:28.305Z,81.70
2019-03-12T11:09:59.135Z,78.84
2019-03-12T11:12:29.846Z,76.96
2019-03-12T11:15:00.613Z,75.46
2019-03-12T11:17:31.368Z,72.37
2019-03-12T11:20:05.257Z,74.02
2019-03-12T11:22:36.060Z,68.65
2019-03-12T11:25:07.026Z,65.60
2019-03-12T11:27:37.928Z,67.26
2019-03-12T11:30:14.215Z,69.63
2019-03-12T11:32:45.106Z,69.63
2019-03-12T11:35:16.007Z,70.04
2019-03-12T11:37:46.781Z,71.98
2019-03-12T11:40:19.858Z,73.35
2019-03-12T11:42:51.208Z,72.67
2019-03-12T11:45:34.800Z,74.15
2019-03-12T11:47:54.792Z,72.27
2019-03-12T11:50:25.595Z,69.88
2019-03-12T11:52:58.810Z,72.56
2019-03-12T11:55:29.017Z,69.35
2019-03-12T11:57:59.772Z,68.53
2019-03-12T12:00:35.201Z,65.40
2019-03-12T12:03:06.084Z,63.41
2019-03-12T12:05:36.850Z,66.42
2019-03-12T12:08:07.638Z,63.93
2019-03-12T12:10:38.390Z,65.03
2019-03-12T12:13:09.147Z,63.22
2019-03-12T12:15:39.921Z,65.02
2019-03-12T12:18:10.878Z,65.11
2019-03-12T12:20:41.655Z,64.55
2019-03-12T12:23:12.417Z,65.98
2019-03-12T12:25:43.205Z,68.70
2019-03-12T12:28:13.946Z,70.60
2019-03-12T12:30:44.715Z,64.59
2019-03-12T12:33:15.772Z,61.42
2019-03-12T12:35:46.547Z,62.17
2019-03-12T12:38:17.321Z,62.22
2019-03-12T12:40:48.078Z,60.39
2019-03-12T12:43:18.826Z,56.69
2019-03-12T12:45:49.594Z,63.10
2019-03-12T12:48:20.350Z,62.30
2019-03-12T12:51:02.436Z,57.76
2019-03-12T12:53:23.785Z,56.91
2019-03-12T12:55:54.564Z,59.77
2019-03-12T12:58:25.554Z,60.31
2019-03-12T13:00:56.319Z,57.56
2019-03-12T13:03:27.074Z,55.06
2019-03-12T13:05:57.844Z,57.98
2019-03-12T13:08:28.600Z,55.78
2019-03-12T13:10:59.366Z,59.63
2019-03-12T13:13:30.125Z,60.09
2019-03-12T13:16:00.993Z,59.22
2019-03-12T13:18:31.766Z,59.92
2019-03-12T13:21:02.529Z,57.28
2019-03-12T13:23:36.046Z,55.81
2019-03-12T13:26:05.963Z,61.99
2019-03-12T13:28:36.720Z,59.10
2019-03-12T13:31:07.490Z,59.54
2019-03-12T13:33:38.258Z,58.65
2019-03-12T13:36:10.923Z,55.80
2019-03-12T13:38:46.168Z,53.20
2019-03-12T13:41:14.370Z,57.69
2019-03-12T13:43:45.122Z,55.38
2019-03-12T13:46:15.911Z,54.41
2019-03-12T13:48:46.666Z,55.91
2019-03-12T13:51:17.418Z,56.14
2019-03-12T13:53:48.659Z,55.93
2019-03-12T13:56:19.562Z,58.32
2019-03-12T13:58:50.318Z,62.43
2019-03-12T14:01:21.082Z,58.21
2019-03-12T14:03:51.848Z,56.10
2019-03-12T14:06:22.615Z,55.94
2019-03-12T14:08:53.374Z,55.10
2019-03-12T14:11:24.144Z,54.20
2019-03-12T14:13:54.906Z,53.06
2019-03-12T14:16:25.667Z,53.85
2019-03-12T14:18:56.437Z,51.28
2019-03-12T14:21:31.040Z,50.33
2019-03-12T14:24:01.982Z,51.89
2019-03-12T14:26:32.954Z,50.34
2019-03-12T14:29:03.715Z,51.42
2019-03-12T14:31:34.477Z,52.37
2019-03-12T14:34:05.233Z,54.28
2019-03-12T14:36:36.006Z,53.68
2019-03-12T14:39:07.375Z,53.08
2019-03-12T14:41:38.151Z,52.61
2019-03-12T14:44:08.907Z,53.53
2019-03-12T14:46:39.674Z,55.09
2019-03-12T14:49:10.426Z,54.52
2019-03-12T14:52:00.256Z,53.66
2019-03-12T14:54:31.030Z,53.18
2019-03-12T14:57:01.908Z,54.89
2019-03-12T14:59:33.465Z,56.44
2019-03-12T15:02:04.666Z,53.99
2019-03-12T15:04:35.427Z,54.45
2019-03-12T15:07:06.198Z,51.79
2019-03-12T15:09:36.961Z,51.11
2019-03-12T15:12:07.734Z,50.18
2019-03-12T15:14:38.492Z,50.13
2019-03-12T15:17:09.260Z,51.42
2019-03-12T15:19:40.027Z,52.06
2019-03-12T15:22:10.797Z,52.06
2019-03-12T15:24:41.579Z,51.67
2019-03-12T15:27:12.345Z,52.59
2019-03-12T15:29:43.108Z,54.53
2019-03-12T15:32:13.883Z,54.41
2019-03-12T15:34:44.632Z,53.94
2019-03-12T15:37:16.314Z,52.01
2019-03-12T15:39:47.077Z,51.66
2019-03-12T15:42:17.844Z,51.91
2019-03-12T15:44:48.598Z,52.51
2019-03-12T15:47:19.377Z,51.93
2019-03-12T15:49:59.398Z,52.04
2019-03-12T15:52:30.170Z,52.13
2019-03-12T15:55:00.929Z,51.68
2019-03-12T15:57:31.702Z,51.58
2019-03-12T16:00:08.890Z,52.42
2019-03-12T16:02:39.666Z,53.71
2019-03-12T16:05:10.659Z,54.38
2019-03-12T16:07:41.439Z,52.66
2019-03-12T16:10:19.530Z,53.68
2019-03-12T16:12:49.825Z,53.93
2019-03-12T16:15:20.577Z,55.41
2019-03-12T16:17:51.463Z,56.40
2019-03-12T16:20:22.450Z,56.04
2019-03-12T16:22:53.214Z,56.55
2019-03-12T16:25:23.974Z,57.25
2019-03-12T16:27:54.742Z,56.71
2019-03-12T16:30:25.502Z,59.25
2019-03-12T16:32:56.273Z,61.23
2019-03-12T16:35:27.079Z,61.94
2019-03-12T16:37:57.928Z,63.91
2019-03-12T16:40:28.700Z,62.40
2019-03-12T16:42:59.855Z,62.36
2019-03-12T16:45:30.669Z,62.47
2019-03-12T16:48:01.441Z,62.63
2019-03-12T16:50:32.305Z,61.27
2019-03-12T16:53:03.074Z,62.24
2019-03-12T16:55:33.831Z,62.35
2019-03-12T16:58:04.596Z,61.22
2019-03-12T17:00:35.458Z,62.00
2019-03-12T17:03:06.225Z,62.47
2019-03-12T17:05:36.986Z,62.92
2019-03-12T17:08:07.760Z,63.32
2019-03-12T17:10:38.512Z,64.78
2019-03-12T17:13:09.335Z,66.48
2019-03-12T17:15:40.038Z,66.82
2019-03-12T17:18:10.806Z,67.10
2019-03-12T17:20:41.570Z,67.75
2019-03-12T17:23:12.347Z,69.06
2019-03-12T17:25:43.113Z,70.23
2019-03-12T17:28:13.885Z,70.22
2019-03-12T17:30:44.668Z,70.87
2019-03-12T17:33:15.434Z,71.78
2019-03-12T17:35:46.413Z,72.32
2019-03-12T17:38:17.201Z,71.76
2019-03-12T17:40:47.958Z,71.76
2019-03-12T17:43:18.727Z,72.51
2019-03-12T17:45:49.490Z,73.48
2019-03-12T17:48:20.257Z,74.20
2019-03-12T17:50:51.014Z,74.30
2019-03-12T17:53:21.782Z,74.86
2019-03-12T17:55:52.539Z,75.72
2019-03-12T17:58:23.307Z,74.83
2019-03-12T18:00:54.065Z,76.37
2019-03-12T18:03:24.828Z,77.83
2019-03-12T18:05:55.576Z,75.95
2019-03-12T18:08:26.346Z,75.19
2019-03-12T18:10:57.144Z,75.93
2019-03-12T18:13:27.886Z,77.50
2019-03-12T18:15:58.643Z,78.08
2019-03-12T18:18:29.442Z,78.69
2019-03-12T18:21:00.191Z,79.36
2019-03-12T18:23:30.962Z,80.75
2019-03-12T18:26:03.529Z,81.68
2019-03-12T18:28:34.529Z,82.76
2019-03-12T18:31:05.375Z,83.01
2019-03-12T18:33:36.139Z,83.86
2019-03-12T18:36:07.007Z,84.57
2019-03-12T18:38:37.773Z,86.28
2019-03-12T18:41:08.534Z,87.12
2019-03-12T18:43:39.366Z,88.83
2019-03-12T18:46:10.122Z,89.89
2019-03-12T18:48:40.889Z,91.29
2019-03-12T18:51:11.650Z,92.41
2019-03-12T18:53:42.418Z,93.72
2019-03-12T18:56:13.179Z,93.76
2019-03-12T18:58:43.941Z,93.63
2019-03-12T19:01:14.807Z,94.13
2019-03-12T19:03:45.607Z,93.09
2019-03-12T19:06:16.374Z,93.83
2019-03-12T19:08:48.027Z,93.48
2019-03-12T19:11:19.117Z,94.84
2019-03-12T19:13:49.981Z,95.89
2019-03-12T19:16:20.801Z,93.88
2019-03-12T19:18:51.514Z,94.08
2019-03-12T19:21:22.275Z,95.62
2019-03-12T19:23:53.046Z,96.59
2019-03-12T19:26:24.009Z,96.80
2019-03-12T19:28:54.781Z,97.84
2019-03-12T19:31:27.442Z,99.89
2019-03-12T19:33:59.623Z,99.83
2019-03-12T19:36:31.293Z,100.00
2019-03-12T19:39:04.818Z,100.00
2019-03-12T19:41:36.624Z,100.00
2019-03-12T19:44:07.570Z,99.36
2019-03-12T19:46:38.328Z,98.66
2019-03-12T19:49:09.107Z,99.84
2019-03-12T19:51:39.861Z,100.00
2019-03-12T19:54:10.631Z,100.00
2019-03-12T19:56:41.725Z,100.00
2019-03-12T19:59:12.486Z,99.99
2019-03-12T20:01:43.451Z,100.00
2019-03-12T20:04:14.213Z,100.00
2019-03-12T20:06:45.154Z,99.96
2019-03-12T20:09:19.862Z,99.79
2019-03-12T20:12:09.749Z,99.81
2019-03-12T20:15:11.666Z,99.72
2019-03-12T20:18:05.656Z,100.00
2019-03-12T20:20:52.284Z,100.00
2019-03-12T20:23:44.494Z,100.00
2019-03-12T20:26:44.748Z,100.00
2019-03-12T20:29:42.601Z,100.00
2019-03-12T20:32:36.399Z,100.00
2019-03-12T20:35:17.080Z,100.00
2019-03-12T20:38:26.970Z,100.00
2019-03-12T20:41:21.749Z,100.00
2019-03-12T20:44:25.323Z,100.00
2019-03-12T20:46:59.911Z,100.00
2019-03-12T20:49:46.526Z,100.00
2019-03-12T20:52:26.897Z,100.00
2019-03-12T20:55:07.694Z,100.00
2019-03-12T20:57:59.272Z,100.00
2019-03-12T21:00:42.923Z,100.00
2019-03-12T21:03:34.186Z,100.00
2019-03-12T21:06:21.026Z,100.00
2019-03-12T21:09:16.550Z,100.00
2019-03-12T21:12:10.820Z,100.00
2019-03-12T21:14:57.603Z,100.00
2019-03-12T21:18:01.707Z,100.00
2019-03-12T21:21:00.887Z,100.00
2019-03-12T21:23:35.469Z,100.00
2019-03-12T21:26:43.746Z,100.00
2019-03-12T21:29:21.399Z,100.00
2019-03-12T21:31:52.182Z,100.00
2019-03-12T21:34:22.946Z,100.00
2019-03-12T21:36:54.078Z,100.00
2019-03-12T21:39:24.975Z,100.00
2019-03-12T21:41:55.743Z,100.00
2019-03-12T21:44:27.123Z,100.00
2019-03-12T21:46:58.143Z,100.00
2019-03-12T21:49:28.928Z,100.00
2019-03-12T21:51:59.693Z,100.00
2019-03-12T21:54:30.469Z,100.00
2019-03-12T21:57:01.246Z,100.00
2019-03-12T21:59:32.008Z,100.00
2019-03-12T22:02:02.879Z,100.00
2019-03-12T22:04:33.630Z,100.00
2019-03-12T22:07:04.514Z,100.00
2019-03-12T22:09:35.279Z,100.00
2019-03-12T22:12:06.042Z,100.00
2019-03-12T22:14:36.821Z,100.00
2019-03-12T22:17:07.593Z,100.00
2019-03-12T22:19:38.362Z,100.00
2019-03-12T22:22:19.601Z,100.00
2019-03-12T22:24:50.393Z,100.00
2019-03-12T22:27:21.163Z,100.00
2019-03-12T22:29:51.917Z,100.00
2019-03-12T22:32:22.683Z,100.00
2019-03-12T22:34:53.438Z,100.00
2019-03-12T22:37:24.219Z,100.00
2019-03-12T22:39:55.013Z,100.00
2019-03-12T22:42:25.783Z,100.00
2019-03-12T22:44:56.536Z,100.00
2019-03-12T22:47:27.631Z,100.00
2019-03-12T22:49:58.401Z,100.00
2019-03-12T22:52:29.507Z,100.00
2019-03-12T22:55:03.494Z,100.00
2019-03-12T22:57:32.957Z,100.00
2019-03-12T23:00:19.099Z,100.00
2019-03-12T23:02:49.875Z,100.00
2019-03-12T23:05:20.629Z,100.00
2019-03-12T23:07:51.536Z,100.00
2019-03-12T23:10:22.603Z,100.00
2019-03-12T23:12:53.474Z,100.00
2019-03-12T23:15:24.433Z,100.00
2019-03-12T23:17:55.329Z,100.00
2019-03-12T23:20:26.206Z,100.00
2019-03-12T23:22:56.978Z,100.00
2019-03-12T23:25:27.790Z,100.00
2019-03-12T23:27:58.541Z,100.00
2019-03-12T23:30:29.308Z,100.00
2019-03-12T23:33:00.066Z,100.00
2019-03-12T23:35:30.830Z,100.00
2019-03-12T23:38:01.764Z,100.00
2019-03-12T23:40:32.511Z,100.00
2019-03-12T23:43:03.267Z,100.00
2019-03-12T23:45:34.045Z,100.00
2019-03-12T23:48:04.825Z,100.00
2019-03-12T23:50:35.590Z,100.00
2019-03-12T23:53:06.334Z,100.00
2019-03-12T23:55:37.110Z,100.00
2019-03-12T23:58:07.871Z,100.00
